الصفحة الرئيسية
METAR-TAF:

METAR-TAF

مطار :

مطار خوسيه مارتي الدولي

هافانا, كوبا

دائرة عرض: 22-59N, خط طول: 082-24W, ارتفاع: 59 متر

مراقبة الطقس الحالي

تاريخ ووقت الإصدار 1ساعة و 0 دقيقة قبل الساعة 03:55UTC
ريح 5 عقدة من الشرق
درجة الحرارة 25°درجة مئوية
الرطوبة 94%
ضغط 1018 hPa
الرؤية: 9000 متر

METAR: MUHA 180355Z 08005KT 9000 NSC 25/24 Q1018

زمن: 00:55 (04:55 UTC)

توقعات

تاريخ ووقت الإصدار 5ساعات و 55 دقيقة قبل الساعة 23:00UTC
التوقعات صالحة من18 الساعة 00 UTC إلى 18 الساعة 24 UTC
ريح 5 عقدة من الشرق
الرؤية: 9000 متر
غيوم قليلة على ارتفاع 3000 قدم
أصبح
من 18 الساعة 14 UTC إلى 18 الساعة 16 UTC
ريح 12 عقدة من الشرق
مؤقت
من 18 الساعة 20 UTC إلى 18 الساعة 23 UTC
غيوم مفككة على ارتفاع 3000 قدم

TAF: MUHA 172300Z 1800/1824 09005KT 9000 FEW030 BECMG 1814/1816 09012KT TEMPO 1820/1823 BKN030

أرصاد الطقس والتوقعات من أكثر من 4000 مطار (تقارير الطقس للمطار METAR والتنبؤ بالطقس بالمطارTAF).

المحطات المتاحة هي النقط الصفراء والحمراء على الخريطة.

حرك المؤشر فوق النقطة لمعرفة اسم المحطة.

ثم انقر لمعرفة أرصاد وتوقعات الطقس.

لتغيير الخارطة: اضغط على الأزرار الخضراء مع رمز الصليب الأسود للتكبير. على الزر الأخضر مع شرطة للتصغير، أو على الأسهم الخضراء للخرائط المجاورة.


METAR-TAF: